Time;durP1;ratioP1;P1;durP2;ratioP2;P2;SDS_P1;SDS_P2;PMS_P1;PMS_P2;Temp;Humidity;BMP_temperature;BMP_pressure;BME280_temperature;BME280_humidity;BME280_pressure;Samples;Min_cycle;Max_cycle;Signal;HPM_P1;HPM_P2
2023/02/23 00:00:48;;;;;;;1.35;0.60;;;20.00;48.60;;;;;;5054131;28;20254;-52
2023/02/23 00:03:18;;;;;;;0.95;0.50;;;20.00;48.60;;;;;;5049600;28;20204;-50
2023/02/23 00:05:49;;;;;;;0.60;0.52;;;20.00;48.50;;;;;;5052117;28;20194;-52
2023/02/23 00:08:20;;;;;;;0.90;0.60;;;20.00;48.60;;;;;;5053663;28;20199;-53
2023/02/23 00:10:57;;;;;;;0.75;0.55;;;20.00;48.60;;;;;;5053796;28;20652;-51
2023/02/23 00:13:29;;;;;;;1.00;0.60;;;20.00;48.60;;;;;;5053577;28;20561;-52
2023/02/23 00:16:02;;;;;;;0.95;0.63;;;20.00;48.60;;;;;;5053546;28;20191;-49
2023/02/23 00:18:43;;;;;;;0.50;0.50;;;20.00;48.60;;;;;;5053343;28;20598;-53
2023/02/23 00:21:16;;;;;;;0.70;0.70;;;20.00;48.60;;;;;;5053640;28;20199;-53
2023/02/23 00:23:51;;;;;;;0.40;0.40;;;20.00;48.60;;;;;;5053637;28;20206;-56
2023/02/23 00:26:22;;;;;;;1.08;0.57;;;20.00;48.60;;;;;;5053567;28;20210;-53
2023/02/23 00:28:56;;;;;;;0.73;0.50;;;20.00;48.60;;;;;;5053379;28;20202;-52
2023/02/23 00:31:27;;;;;;;0.55;0.45;;;20.00;48.60;;;;;;5053266;28;20198;-53
2023/02/23 00:34:00;;;;;;;1.05;0.40;;;20.00;48.70;;;;;;5053508;28;20204;-54
2023/02/23 00:36:33;;;;;;;0.63;0.50;;;20.00;48.60;;;;;;5053656;28;20735;-54
2023/02/23 00:39:16;;;;;;;0.30;0.30;;;20.00;48.60;;;;;;5053721;28;20199;-51
2023/02/23 00:41:47;;;;;;;1.27;0.60;;;20.00;48.60;;;;;;5053108;28;20265;-50
2023/02/23 00:44:20;;;;;;;1.52;0.60;;;20.00;48.60;;;;;;5053466;28;20223;-54
2023/02/23 00:46:51;;;;;;;0.50;0.50;;;20.00;48.70;;;;;;5052843;28;20203;-50
2023/02/23 00:49:23;;;;;;;1.00;0.60;;;20.00;48.70;;;;;;5052270;28;20211;-50
2023/02/23 00:51:54;;;;;;;0.73;0.50;;;20.00;48.70;;;;;;5052781;28;20215;-50
2023/02/23 00:54:24;;;;;;;0.60;0.57;;;20.00;48.70;;;;;;5052905;28;20191;-50
2023/02/23 00:56:55;;;;;;;0.60;0.50;;;20.00;48.70;;;;;;5052535;28;20199;-49
2023/02/23 00:59:28;;;;;;;1.10;0.70;;;20.00;48.70;;;;;;5050886;28;20203;-52
2023/02/23 01:01:59;;;;;;;1.15;0.47;;;20.00;48.70;;;;;;5052387;28;20220;-50
2023/02/23 01:04:29;;;;;;;0.40;0.40;;;20.00;48.70;;;;;;5052947;28;20219;-51
2023/02/23 01:07:02;;;;;;;0.43;0.40;;;20.00;48.70;;;;;;5035160;28;20204;-51
2023/02/23 01:09:34;;;;;;;0.70;0.57;;;20.00;48.70;;;;;;5032761;28;20192;-52
2023/02/23 01:12:06;;;;;;;0.60;0.50;;;20.00;48.70;;;;;;5032570;28;20227;-53
2023/02/23 01:14:39;;;;;;;0.30;0.30;;;20.00;48.70;;;;;;5032218;28;20200;-53
2023/02/23 01:17:11;;;;;;;0.65;0.60;;;20.00;48.70;;;;;;5032664;28;20203;-49
2023/02/23 01:19:42;;;;;;;0.50;0.50;;;20.00;48.70;;;;;;5032928;28;20200;-52
2023/02/23 01:22:13;;;;;;;0.60;0.40;;;20.00;48.70;;;;;;5031950;28;20227;-53
2023/02/23 01:24:43;;;;;;;0.82;0.60;;;20.00;48.70;;;;;;5031920;28;20224;-50
2023/02/23 01:27:14;;;;;;;0.52;0.50;;;20.00;48.70;;;;;;5044802;28;20210;-50
2023/02/23 01:29:47;;;;;;;0.80;0.50;;;20.00;48.70;;;;;;5051555;28;20656;-50
2023/02/23 01:32:17;;;;;;;1.02;0.57;;;20.00;48.70;;;;;;5052423;28;20230;-51
2023/02/23 01:34:48;;;;;;;0.77;0.50;;;20.00;48.70;;;;;;5052381;28;20199;-51
2023/02/23 01:37:19;;;;;;;0.60;0.45;;;20.00;48.70;;;;;;5051855;28;20557;-51
2023/02/23 01:39:49;;;;;;;1.40;0.63;;;20.00;48.70;;;;;;5052226;28;20192;-50
2023/02/23 01:42:21;;;;;;;0.73;0.47;;;20.00;48.70;;;;;;5051984;28;20227;-51
2023/02/23 01:45:27;;;;;;;0.50;0.50;;;20.00;48.80;;;;;;5051692;28;20273;-50
2023/02/23 01:48:01;;;;;;;0.68;0.50;;;20.00;48.80;;;;;;5051671;28;20214;-53
2023/02/23 01:50:40;;;;;;;0.57;0.43;;;20.10;48.80;;;;;;5051517;28;20238;-52
2023/02/23 01:53:11;;;;;;;0.68;0.60;;;20.10;48.80;;;;;;5051325;28;20219;-49
2023/02/23 01:55:43;;;;;;;0.30;0.30;;;20.10;48.80;;;;;;5051652;28;20705;-52
2023/02/23 01:58:18;;;;;;;0.40;0.40;;;20.10;48.80;;;;;;5051529;28;20231;-51
2023/02/23 02:00:55;;;;;;;0.60;0.57;;;20.10;48.80;;;;;;5051303;28;20195;-53
2023/02/23 02:03:31;;;;;;;0.60;0.52;;;20.10;48.80;;;;;;5051339;28;20226;-53
2023/02/23 02:06:05;;;;;;;1.27;0.50;;;20.10;48.80;;;;;;5049429;28;20219;-50
2023/02/23 02:08:43;;;;;;;0.90;0.50;;;20.10;48.80;;;;;;5034115;28;20219;-53
2023/02/23 02:11:24;;;;;;;0.43;0.40;;;20.10;48.80;;;;;;5031416;28;20643;-50
2023/02/23 02:13:57;;;;;;;1.75;0.60;;;20.10;48.80;;;;;;5031776;28;20282;-49
2023/02/23 02:16:48;;;;;;;0.50;0.40;;;20.10;48.70;;;;;;5031761;28;20655;-50
2023/02/23 02:19:50;;;;;;;0.77;0.40;;;20.10;48.80;;;;;;5031587;28;20238;-51
2023/02/23 02:22:47;;;;;;;0.30;0.30;;;20.10;48.80;;;;;;4982324;28;20219;-51
2023/02/23 02:25:41;;;;;;;1.00;0.65;;;20.10;48.80;;;;;;5031310;28;20228;-49
2023/02/23 02:28:42;;;;;;;0.57;0.40;;;20.10;48.80;;;;;;5031715;28;20199;-53
2023/02/23 02:31:43;;;;;;;1.00;0.50;;;20.10;48.80;;;;;;5031485;28;20651;-50
2023/02/23 02:34:42;;;;;;;0.60;0.50;;;20.10;48.80;;;;;;5031586;28;20196;-52
2023/02/23 02:37:49;;;;;;;0.40;0.40;;;20.10;48.80;;;;;;5031284;28;20196;-50
2023/02/23 02:40:28;;;;;;;0.73;0.65;;;20.10;48.70;;;;;;4985777;28;20206;-49
2023/02/23 02:43:10;;;;;;;0.50;0.50;;;20.10;48.70;;;;;;5033206;28;20228;-52
2023/02/23 02:45:49;;;;;;;0.88;0.60;;;20.10;48.80;;;;;;5035276;28;20590;-53
2023/02/23 02:48:29;;;;;;;0.50;0.50;;;20.10;48.80;;;;;;5035233;28;20207;-49
2023/02/23 02:51:08;;;;;;;0.77;0.60;;;20.10;48.80;;;;;;5035752;28;20203;-53
2023/02/23 02:53:47;;;;;;;0.60;0.50;;;20.10;48.90;;;;;;5035678;28;20235;-52
2023/02/23 02:56:22;;;;;;;0.90;0.45;;;20.10;48.90;;;;;;5042916;28;20202;-52
2023/02/23 02:58:55;;;;;;;0.63;0.40;;;20.10;48.80;;;;;;5054838;28;20203;-49
2023/02/23 04:18:29;;;;;;;0.77;0.50;;;20.30;49.20;;;;;;5042639;28;20214;-54
2023/02/23 04:21:00;;;;;;;1.00;0.60;;;20.30;49.30;;;;;;5053108;28;20682;-50
2023/02/23 04:23:31;;;;;;;0.40;0.40;;;20.30;49.90;;;;;;5053747;28;20212;-53
2023/02/23 04:26:03;;;;;;;1.25;0.45;;;20.30;49.20;;;;;;5053672;28;20695;-54
2023/02/23 04:28:34;;;;;;;0.50;0.40;;;20.30;49.20;;;;;;5053604;28;20201;-52
2023/02/23 04:31:05;;;;;;;1.85;0.60;;;20.30;49.20;;;;;;5053301;28;20203;-53
2023/02/23 04:33:37;;;;;;;0.43;0.38;;;20.30;49.30;;;;;;5053117;28;20670;-55
2023/02/23 04:36:08;;;;;;;1.25;0.50;;;20.40;49.30;;;;;;5053809;28;20195;-52
2023/02/23 04:38:41;;;;;;;1.25;0.50;;;20.40;49.30;;;;;;5053237;28;20206;-55
2023/02/23 04:41:11;;;;;;;0.70;0.52;;;20.30;49.20;;;;;;5053066;28;20198;-52
2023/02/23 04:43:42;;;;;;;0.60;0.50;;;20.30;49.30;;;;;;5053191;28;20195;-53
2023/02/23 04:46:13;;;;;;;0.88;0.50;;;20.40;49.30;;;;;;5049895;28;20215;-53
2023/02/23 04:48:45;;;;;;;0.85;0.50;;;20.40;49.30;;;;;;5052936;28;20192;-57
2023/02/23 04:51:16;;;;;;;0.47;0.43;;;20.40;49.30;;;;;;5052691;28;20199;-55
2023/02/23 04:53:46;;;;;;;1.33;0.60;;;20.40;49.30;;;;;;5052561;28;20196;-54
2023/02/23 04:56:17;;;;;;;0.50;0.50;;;20.40;49.40;;;;;;5052739;28;20206;-54
2023/02/23 04:58:48;;;;;;;0.93;0.45;;;20.40;49.40;;;;;;5039177;28;20192;-55
2023/02/23 05:01:19;;;;;;;0.80;0.50;;;20.40;49.40;;;;;;5032748;28;20645;-56
2023/02/23 05:03:52;;;;;;;0.50;0.32;;;20.50;49.40;;;;;;5032693;28;20691;-55
2023/02/23 05:06:22;;;;;;;0.60;0.50;;;20.50;49.40;;;;;;5032051;28;20312;-50
2023/02/23 05:08:53;;;;;;;0.85;0.63;;;20.50;49.40;;;;;;5033057;28;20200;-51
2023/02/23 05:11:25;;;;;;;0.52;0.50;;;20.50;49.40;;;;;;5032771;28;20204;-54
2023/02/23 05:13:56;;;;;;;1.10;0.50;;;20.50;49.40;;;;;;5032621;28;20363;-50
2023/02/23 05:16:27;;;;;;;0.93;0.50;;;20.50;49.40;;;;;;5032037;28;20199;-53
2023/02/23 05:18:59;;;;;;;1.30;0.55;;;20.50;49.40;;;;;;5032381;28;20228;-54
2023/02/23 05:21:30;;;;;;;0.65;0.47;;;20.50;49.40;;;;;;5032502;28;20207;-53
2023/02/23 05:24:01;;;;;;;1.05;0.47;;;20.50;49.40;;;;;;5032771;28;20280;-52
2023/02/23 05:26:31;;;;;;;0.47;0.40;;;20.50;49.50;;;;;;5039550;28;20226;-51
2023/02/23 05:29:02;;;;;;;1.02;0.60;;;20.50;49.40;;;;;;5052452;28;20214;-50
2023/02/23 05:31:33;;;;;;;0.50;0.50;;;20.50;49.40;;;;;;5051915;28;20302;-51
2023/02/23 05:34:05;;;;;;;0.55;0.50;;;20.60;49.50;;;;;;5052147;28;20195;-51
2023/02/23 05:36:36;;;;;;;1.20;0.57;;;20.60;49.50;;;;;;5052205;28;20670;-50
2023/02/23 05:39:07;;;;;;;0.82;0.60;;;20.60;49.40;;;;;;5052446;28;20199;-50
2023/02/23 05:41:37;;;;;;;0.75;0.50;;;20.60;49.40;;;;;;5047020;28;20219;-53
2023/02/23 05:44:08;;;;;;;1.92;0.50;;;20.60;49.40;;;;;;5037650;28;20582;-51
2023/02/23 05:46:39;;;;;;;0.65;0.32;;;20.60;49.40;;;;;;5051893;28;20223;-52
2023/02/23 05:49:13;;;;;;;0.47;0.40;;;20.60;49.40;;;;;;5051810;28;20668;-51
2023/02/23 05:51:43;;;;;;;0.50;0.45;;;20.60;49.40;;;;;;5040818;28;20688;-52
2023/02/23 05:54:14;;;;;;;1.25;0.65;;;20.70;49.40;;;;;;5039650;28;20562;-54
2023/02/23 05:56:46;;;;;;;1.70;0.90;;;20.60;49.30;;;;;;5049877;28;20211;-54
2023/02/23 05:59:17;;;;;;;2.38;1.08;;;20.70;49.40;;;;;;5050988;28;20203;-56
2023/02/23 06:01:47;;;;;;;2.85;1.27;;;20.60;49.30;;;;;;5051661;28;20223;-54
2023/02/23 06:04:20;;;;;;;2.75;1.35;;;20.60;49.30;;;;;;5051614;28;20457;-51
2023/02/23 06:06:51;;;;;;;3.17;1.50;;;20.60;49.30;;;;;;5051446;28;20234;-51
2023/02/23 06:09:21;;;;;;;3.50;1.40;;;20.60;49.30;;;;;;5047979;28;20538;-54
2023/02/23 06:11:52;;;;;;;2.42;1.52;;;20.60;49.30;;;;;;5051390;28;20709;-53
2023/02/23 06:14:23;;;;;;;2.22;1.60;;;20.60;49.30;;;;;;5051557;28;20195;-53
2023/02/23 06:16:54;;;;;;;4.43;1.70;;;20.70;49.40;;;;;;5050706;28;20203;-52
2023/02/23 06:19:26;;;;;;;3.70;1.85;;;20.60;49.30;;;;;;5051096;28;20202;-53
2023/02/23 06:21:57;;;;;;;4.40;1.90;;;20.70;49.40;;;;;;5047609;28;20212;-53
2023/02/23 06:24:28;;;;;;;3.63;1.90;;;20.60;49.30;;;;;;5048741;28;20205;-53
2023/02/23 06:26:58;;;;;;;3.60;1.98;;;20.70;49.30;;;;;;5042201;28;20230;-50
2023/02/23 06:29:29;;;;;;;3.35;1.60;;;20.70;49.30;;;;;;5051098;28;20282;-48
2023/02/23 06:32:00;;;;;;;2.92;2.08;;;20.70;49.30;;;;;;5050448;28;20750;-52
2023/02/23 06:34:33;;;;;;;3.60;2.05;;;20.70;49.30;;;;;;5048087;28;20215;-53
2023/02/23 06:37:05;;;;;;;5.85;2.33;;;20.70;49.30;;;;;;5033245;28;20199;-51
2023/02/23 06:39:35;;;;;;;5.90;2.42;;;20.70;49.30;;;;;;5044709;28;20611;-52
2023/02/23 06:42:06;;;;;;;3.78;2.10;;;20.70;49.30;;;;;;5032264;28;20216;-51
2023/02/23 06:44:37;;;;;;;4.28;2.30;;;20.70;49.30;;;;;;5050560;28;20675;-50
2023/02/23 06:47:08;;;;;;;4.93;2.65;;;20.70;49.20;;;;;;5050669;28;20632;-49
2023/02/23 06:49:41;;;;;;;4.80;2.30;;;20.60;49.20;;;;;;5043846;28;20205;-52
2023/02/23 06:52:12;;;;;;;5.82;2.70;;;20.70;49.30;;;;;;5041301;28;20226;-51
2023/02/23 06:54:43;;;;;;;4.30;2.30;;;20.70;49.30;;;;;;5051306;28;20199;-52
2023/02/23 06:57:13;;;;;;;6.05;2.40;;;20.60;49.20;;;;;;5048994;28;20192;-50
2023/02/23 06:59:44;;;;;;;5.15;2.50;;;20.70;49.90;;;;;;5049948;28;20199;-49
2023/02/23 07:02:15;;;;;;;4.25;2.38;;;20.70;49.20;;;;;;5050159;28;20243;-50
2023/02/23 07:04:48;;;;;;;5.07;2.75;;;20.60;49.20;;;;;;5050341;28;20203;-50
2023/02/23 07:07:19;;;;;;;4.32;2.63;;;20.70;49.20;;;;;;5050652;28;20582;-50
2023/02/23 07:09:49;;;;;;;4.45;2.35;;;20.70;49.30;;;;;;5048202;28;20191;-51
2023/02/23 07:12:20;;;;;;;5.88;2.40;;;20.60;49.20;;;;;;5050701;28;20237;-51
2023/02/23 07:14:51;;;;;;;3.83;2.42;;;20.60;49.20;;;;;;5050077;28;20204;-54
2023/02/23 07:17:21;;;;;;;6.45;2.70;;;20.60;49.20;;;;;;5050441;28;20203;-50
2023/02/23 07:19:54;;;;;;;4.53;2.65;;;20.60;49.30;;;;;;5051035;28;20196;-54
2023/02/23 07:22:28;;;;;;;4.53;2.60;;;20.60;49.20;;;;;;5050956;28;20215;-49
2023/02/23 07:24:59;;;;;;;5.15;2.90;;;20.60;49.30;;;;;;5050750;28;20199;-52
2023/02/23 07:27:29;;;;;;;5.57;3.08;;;20.60;49.30;;;;;;5050791;28;20227;-54
2023/02/23 07:30:01;;;;;;;6.15;3.45;;;20.60;49.30;;;;;;5053949;28;20199;-49
2023/02/23 07:32:32;;;;;;;5.63;3.42;;;20.60;49.30;;;;;;5054380;28;20787;-51
2023/02/23 07:35:05;;;;;;;6.03;2.78;;;20.60;49.30;;;;;;5053997;28;20207;-51
2023/02/23 07:37:35;;;;;;;4.80;3.35;;;20.60;49.30;;;;;;5054064;28;20199;-52
2023/02/23 07:40:07;;;;;;;6.57;3.58;;;20.60;49.30;;;;;;5055096;28;20191;-53
2023/02/23 07:42:37;;;;;;;6.47;3.45;;;20.60;49.30;;;;;;5053838;28;20211;-52
2023/02/23 07:45:09;;;;;;;7.50;3.67;;;20.60;49.30;;;;;;5053936;28;20205;-50
2023/02/23 07:47:40;;;;;;;6.25;3.13;;;20.60;49.30;;;;;;5054137;28;20223;-49
2023/02/23 07:50:14;;;;;;;7.18;4.10;;;20.60;49.40;;;;;;5053768;28;20663;-50
2023/02/23 07:52:45;;;;;;;6.50;4.00;;;20.60;49.30;;;;;;5038271;28;20212;-52
2023/02/23 07:55:16;;;;;;;5.88;3.95;;;20.60;49.30;;;;;;5034390;28;20562;-52
2023/02/23 07:57:46;;;;;;;5.55;3.45;;;20.50;49.30;;;;;;5051527;28;20195;-50
2023/02/23 08:00:17;;;;;;;8.45;4.22;;;20.60;49.30;;;;;;5053807;28;20210;-48
2023/02/23 08:02:48;;;;;;;6.65;3.65;;;20.60;49.30;;;;;;5053835;28;20212;-52
2023/02/23 08:05:21;;;;;;;7.90;3.80;;;20.50;49.30;;;;;;5053822;28;20195;-48
2023/02/23 08:07:51;;;;;;;6.13;3.45;;;20.50;49.30;;;;;;5051503;28;20235;-50
2023/02/23 08:10:22;;;;;;;6.65;3.65;;;20.50;49.30;;;;;;5033856;28;20203;-49
2023/02/23 08:12:53;;;;;;;5.97;3.80;;;20.50;49.30;;;;;;5033390;28;20227;-48
2023/02/23 08:15:23;;;;;;;5.70;3.53;;;20.50;49.30;;;;;;5033130;28;20196;-49
2023/02/23 08:17:54;;;;;;;7.47;3.95;;;20.50;49.40;;;;;;5033146;28;20196;-48
2023/02/23 08:20:27;;;;;;;6.78;3.70;;;20.50;49.40;;;;;;5033416;28;20196;-50
2023/02/23 08:22:58;;;;;;;5.28;3.17;;;20.50;49.40;;;;;;5041569;28;20290;-50
2023/02/23 08:25:29;;;;;;;5.13;3.70;;;20.50;49.40;;;;;;5053499;28;20199;-50
2023/02/23 08:28:03;;;;;;;6.18;3.28;;;20.50;49.40;;;;;;5052976;28;20223;-50
2023/02/23 08:30:34;;;;;;;6.75;3.42;;;20.50;49.40;;;;;;5052979;28;20207;-51
2023/02/23 08:33:05;;;;;;;6.00;3.42;;;20.40;49.30;;;;;;5053092;28;20223;-51
2023/02/23 08:35:37;;;;;;;6.55;3.50;;;20.40;49.40;;;;;;5053246;28;20192;-52
2023/02/23 08:38:08;;;;;;;5.82;3.53;;;20.40;49.40;;;;;;5053318;28;20364;-50
2023/02/23 08:40:39;;;;;;;6.32;3.70;;;20.40;49.40;;;;;;5053070;28;20337;-49
2023/02/23 08:43:09;;;;;;;5.30;3.45;;;20.40;49.40;;;;;;5053083;28;20219;-50
2023/02/23 08:45:40;;;;;;;5.68;3.05;;;20.40;49.40;;;;;;5052394;28;20199;-50
2023/02/23 08:48:11;;;;;;;4.88;3.30;;;20.40;49.40;;;;;;5040083;28;20700;-51
2023/02/23 08:50:43;;;;;;;5.13;3.28;;;20.40;49.40;;;;;;5042406;28;20667;-52
2023/02/23 08:53:14;;;;;;;6.05;3.20;;;20.40;49.40;;;;;;5052585;28;20224;-53
2023/02/23 08:55:45;;;;;;;5.20;3.88;;;20.40;49.40;;;;;;5049386;28;20194;-54
2023/02/23 08:58:15;;;;;;;5.93;3.10;;;20.40;49.40;;;;;;5052402;28;20657;-52
2023/02/23 09:00:47;;;;;;;4.55;3.08;;;20.30;49.30;;;;;;5052231;28;20230;-54
2023/02/23 09:03:18;;;;;;;5.43;3.25;;;20.40;49.40;;;;;;5052663;28;20250;-51
2023/02/23 09:05:51;;;;;;;4.97;3.20;;;20.30;49.30;;;;;;5052809;28;20203;-54
2023/02/23 09:08:22;;;;;;;5.25;2.90;;;20.30;49.30;;;;;;5036606;28;20203;-52
2023/02/23 09:10:53;;;;;;;5.28;3.30;;;20.30;49.30;;;;;;5032044;28;20539;-50
2023/02/23 09:13:23;;;;;;;6.25;3.30;;;20.30;49.40;;;;;;5032396;28;20216;-51
2023/02/23 09:15:55;;;;;;;4.30;2.80;;;20.30;49.40;;;;;;5032203;28;20196;-49
2023/02/23 09:18:28;;;;;;;3.20;2.63;;;20.30;49.40;;;;;;5032522;28;20254;-50
2023/02/23 09:21:05;;;;;;;4.57;2.92;;;20.30;49.40;;;;;;5032022;28;20207;-50
2023/02/23 09:23:36;;;;;;;5.30;3.05;;;20.30;49.40;;;;;;5031964;28;20861;-49
2023/02/23 09:26:07;;;;;;;6.20;3.50;;;20.30;49.40;;;;;;5035924;28;20199;-48
2023/02/23 09:28:39;;;;;;;3.85;2.90;;;20.30;49.40;;;;;;5052059;28;20196;-50
2023/02/23 09:31:11;;;;;;;4.32;2.83;;;20.30;49.40;;;;;;5052275;28;20206;-50
2023/02/23 09:33:42;;;;;;;4.65;2.92;;;20.30;49.40;;;;;;5052048;28;20652;-49
2023/02/23 09:36:16;;;;;;;4.22;2.80;;;20.30;49.40;;;;;;5052083;28;20199;-50
2023/02/23 09:38:48;;;;;;;5.43;3.25;;;20.20;49.40;;;;;;5052155;28;20207;-52
2023/02/23 09:41:54;;;;;;;5.60;2.90;;;20.20;49.40;;;;;;5052224;28;20200;-48
2023/02/23 09:44:39;;;;;;;4.32;2.75;;;20.20;49.40;;;;;;5051458;28;20199;-52
2023/02/23 09:47:24;;;;;;;3.83;2.67;;;20.20;49.40;;;;;;5051623;28;20227;-53
2023/02/23 09:49:57;;;;;;;3.90;2.40;;;20.20;49.40;;;;;;5051798;28;20211;-52
2023/02/23 09:52:36;;;;;;;5.00;2.90;;;20.20;49.40;;;;;;5051731;28;20277;-49
2023/02/23 09:55:07;;;;;;;3.20;2.60;;;20.20;49.40;;;;;;5051750;28;20199;-54
2023/02/23 09:57:42;;;;;;;5.65;3.10;;;20.20;49.40;;;;;;5051827;28;20203;-49
2023/02/23 10:00:21;;;;;;;4.72;2.70;;;20.10;49.40;;;;;;5051816;28;20202;-50
2023/02/23 10:03:06;;;;;;;4.25;2.65;;;20.10;49.40;;;;;;5051888;28;20219;-52
2023/02/23 10:05:42;;;;;;;4.00;2.45;;;20.10;49.40;;;;;;5051667;28;20205;-50
2023/02/23 10:08:41;;;;;;;3.75;2.50;;;20.20;49.40;;;;;;5051151;28;20587;-49
2023/02/23 10:11:21;;;;;;;3.63;2.60;;;20.10;49.40;;;;;;5043144;28;20194;-50
2023/02/23 10:14:14;;;;;;;5.10;2.53;;;20.10;49.40;;;;;;5031205;28;20200;-52
2023/02/23 10:16:56;;;;;;;2.42;2.08;;;20.10;49.40;;;;;;5033831;28;20192;-49
2023/02/23 10:19:33;;;;;;;3.08;2.50;;;20.10;49.30;;;;;;5031675;28;20670;-51
2023/02/23 10:22:08;;;;;;;3.25;2.35;;;20.10;49.40;;;;;;5031713;28;20216;-53
2023/02/23 10:24:45;;;;;;;3.67;2.67;;;20.10;49.40;;;;;;5031833;28;20199;-49
2023/02/23 10:27:19;;;;;;;4.40;2.70;;;20.10;49.40;;;;;;5045066;28;20230;-54
2023/02/23 10:29:52;;;;;;;3.78;2.70;;;20.00;49.40;;;;;;5051086;28;20198;-49
2023/02/23 10:32:28;;;;;;;3.35;2.35;;;20.00;49.40;;;;;;5051066;28;20219;-50
2023/02/23 10:34:59;;;;;;;4.45;2.70;;;20.10;49.40;;;;;;5051384;28;20207;-50
2023/02/23 10:37:30;;;;;;;4.90;2.70;;;20.00;49.40;;;;;;5051191;28;20195;-49
2023/02/23 10:40:04;;;;;;;3.15;2.35;;;20.00;49.40;;;;;;5051252;28;20200;-53
2023/02/23 10:42:35;;;;;;;3.03;2.03;;;20.00;49.30;;;;;;5051696;28;20211;-49
2023/02/23 10:45:21;;;;;;;3.67;2.38;;;20.00;49.40;;;;;;5050812;28;20202;-49
2023/02/23 10:47:57;;;;;;;3.22;2.45;;;20.00;49.30;;;;;;5050985;28;20772;-50
2023/02/23 10:50:28;;;;;;;3.90;2.10;;;20.00;49.40;;;;;;5051012;28;20202;-48
2023/02/23 10:53:02;;;;;;;3.45;2.20;;;20.00;49.40;;;;;;5050941;28;20215;-49
2023/02/23 10:55:35;;;;;;;3.90;2.35;;;20.00;49.40;;;;;;5050550;28;20196;-50
2023/02/23 10:58:17;;;;;;;3.92;2.55;;;19.90;49.30;;;;;;5050761;28;20195;-49
2023/02/23 11:00:56;;;;;;;3.20;2.30;;;19.90;49.30;;;;;;5047859;28;20230;-49
2023/02/23 11:03:31;;;;;;;2.75;1.88;;;19.90;49.30;;;;;;5051719;28;20624;-49
2023/02/23 11:06:02;;;;;;;2.78;1.80;;;19.90;49.30;;;;;;5053631;28;20206;-49
2023/02/23 11:08:35;;;;;;;4.05;2.60;;;19.90;49.30;;;;;;5052923;28;20223;-51
2023/02/23 11:11:10;;;;;;;4.03;2.30;;;19.90;49.30;;;;;;5055204;28;20196;-49
2023/02/23 11:13:43;;;;;;;2.80;2.00;;;19.90;49.30;;;;;;5054836;28;20206;-52
2023/02/23 11:16:15;;;;;;;2.92;1.95;;;19.90;49.30;;;;;;5054542;28;20250;-48
2023/02/23 11:18:55;;;;;;;3.30;2.25;;;19.90;49.30;;;;;;5054698;28;20652;-51
2023/02/23 11:21:32;;;;;;;3.05;1.85;;;19.80;49.30;;;;;;5054678;28;20199;-50
2023/02/23 11:24:12;;;;;;;2.00;1.80;;;19.80;49.20;;;;;;5054971;28;20195;-49
2023/02/23 11:26:46;;;;;;;3.22;2.42;;;19.80;49.30;;;;;;5054535;28;20210;-49
2023/02/23 11:29:24;;;;;;;2.67;1.85;;;19.80;49.30;;;;;;5054696;28;20205;-49
2023/02/23 11:31:58;;;;;;;3.40;2.20;;;19.80;49.30;;;;;;5054380;28;20211;-49
2023/02/23 11:34:34;;;;;;;3.47;2.35;;;19.80;49.30;;;;;;5054783;28;20569;-49
2023/02/23 11:37:06;;;;;;;3.72;2.53;;;19.80;49.30;;;;;;5054802;28;20560;-51
2023/02/23 11:39:38;;;;;;;3.67;2.35;;;19.80;49.30;;;;;;5054637;28;20538;-50
2023/02/23 11:42:22;;;;;;;3.72;2.05;;;19.80;49.30;;;;;;5054450;28;20255;-48
2023/02/23 11:45:04;;;;;;;2.97;1.85;;;19.80;49.30;;;;;;5054208;28;20207;-48
2023/02/23 11:47:40;;;;;;;3.53;2.10;;;19.70;49.20;;;;;;5053685;28;20223;-48
2023/02/23 11:50:22;;;;;;;2.20;2.00;;;19.70;49.20;;;;;;5054004;28;20207;-50
2023/02/23 11:53:01;;;;;;;3.30;2.10;;;19.70;49.20;;;;;;5053949;28;20217;-48
2023/02/23 11:55:33;;;;;;;2.72;1.88;;;19.70;49.20;;;;;;5054294;28;20199;-48
2023/02/23 11:58:25;;;;;;;4.07;2.05;;;19.70;49.20;;;;;;5053902;28;20206;-49
2023/02/23 12:01:00;;;;;;;2.05;1.75;;;19.70;49.20;;;;;;5053494;28;20564;-48
2023/02/23 12:03:34;;;;;;;3.05;2.05;;;19.70;49.20;;;;;;5053553;28;20218;-51
2023/02/23 12:06:04;;;;;;;2.65;1.65;;;19.60;49.20;;;;;;5036789;28;20192;-48
2023/02/23 12:08:43;;;;;;;2.50;2.00;;;19.60;49.80;;;;;;5033654;28;20219;-51
2023/02/23 12:11:19;;;;;;;3.03;1.90;;;19.60;49.20;;;;;;5033230;28;20196;-50
2023/02/23 12:13:57;;;;;;;2.88;1.85;;;19.60;49.20;;;;;;5033221;28;20200;-50
2023/02/23 12:16:31;;;;;;;2.65;1.70;;;19.60;49.20;;;;;;5032027;28;20591;-48
2023/02/23 12:19:07;;;;;;;2.90;1.80;;;19.60;49.20;;;;;;5033772;28;20235;-49
2023/02/23 12:21:42;;;;;;;2.28;1.67;;;19.60;49.20;;;;;;5042956;28;20691;-48
2023/02/23 12:24:20;;;;;;;1.85;1.63;;;19.60;49.20;;;;;;5053727;28;20583;-48
2023/02/23 12:26:57;;;;;;;3.13;1.95;;;19.50;49.20;;;;;;5053385;28;20214;-48
2023/02/23 12:29:35;;;;;;;2.30;1.50;;;19.50;49.20;;;;;;5053416;28;20199;-49
2023/02/23 12:32:11;;;;;;;1.77;1.60;;;19.50;49.20;;;;;;5053099;28;20211;-50
2023/02/23 12:34:49;;;;;;;1.98;1.52;;;19.50;49.10;;;;;;5053452;28;20202;-50
2023/02/23 12:37:35;;;;;;;2.28;1.63;;;19.50;49.20;;;;;;5053802;28;20675;-50
2023/02/23 12:40:17;;;;;;;3.92;1.90;;;19.50;49.20;;;;;;5053467;28;20207;-50
2023/02/23 12:42:55;;;;;;;2.90;1.73;;;19.50;49.20;;;;;;5053703;28;20269;-49
2023/02/23 12:45:35;;;;;;;2.22;1.55;;;19.50;49.10;;;;;;5053130;28;20559;-50
2023/02/23 12:48:19;;;;;;;2.78;1.60;;;19.40;49.10;;;;;;5053427;28;20227;-50
2023/02/23 12:50:53;;;;;;;1.90;1.60;;;19.40;49.10;;;;;;5052970;28;20207;-50
2023/02/23 12:53:29;;;;;;;2.58;1.80;;;19.40;49.10;;;;;;5049831;28;20635;-52
2023/02/23 12:56:22;;;;;;;2.45;1.70;;;19.40;49.10;;;;;;5053111;28;20206;-51
2023/02/23 12:59:04;;;;;;;2.72;1.50;;;19.40;49.10;;;;;;5052711;28;20202;-53
2023/02/23 13:01:41;;;;;;;2.60;1.70;;;19.40;49.10;;;;;;5052531;28;20289;-51
2023/02/23 13:04:41;;;;;;;2.15;1.58;;;19.40;49.10;;;;;;5052938;28;20206;-50
2023/02/23 13:07:21;;;;;;;2.20;1.50;;;19.40;49.10;;;;;;5052636;28;20238;-49
2023/02/23 13:10:04;;;;;;;1.67;1.55;;;19.40;49.10;;;;;;5052377;28;20655;-51
2023/02/23 13:12:53;;;;;;;1.92;1.58;;;19.30;49.10;;;;;;5052814;28;20576;-48
2023/02/23 13:15:31;;;;;;;3.00;1.70;;;19.30;49.10;;;;;;5050273;28;20233;-51
2023/02/23 13:18:08;;;;;;;2.05;1.73;;;19.30;49.10;;;;;;5052416;28;20203;-50
2023/02/23 13:20:43;;;;;;;3.25;1.48;;;19.30;49.10;;;;;;5052746;28;20203;-49
2023/02/23 13:23:22;;;;;;;2.55;1.48;;;19.40;49.10;;;;;;5052268;28;20682;-51
2023/02/23 13:25:59;;;;;;;3.10;1.35;;;19.30;49.10;;;;;;5051778;28;20254;-49
2023/02/23 13:28:42;;;;;;;1.95;1.45;;;19.30;49.10;;;;;;5052404;28;20255;-49
2023/02/23 13:31:23;;;;;;;1.80;1.50;;;19.30;49.10;;;;;;5051904;28;20195;-49
2023/02/23 13:33:59;;;;;;;1.77;1.27;;;19.30;49.10;;;;;;5052022;28;20211;-50
2023/02/23 13:36:32;;;;;;;2.08;1.40;;;19.30;49.10;;;;;;5051940;28;20203;-51
2023/02/23 13:39:40;;;;;;;2.22;1.70;;;19.20;49.10;;;;;;5051751;28;20199;-50
2023/02/23 13:42:26;;;;;;;1.85;1.58;;;19.20;49.00;;;;;;5051657;28;20226;-52
2023/02/23 13:45:09;;;;;;;2.33;1.50;;;19.20;49.00;;;;;;5051855;28;20199;-49
2023/02/23 13:47:49;;;;;;;2.65;1.55;;;19.20;49.00;;;;;;5051342;28;20302;-50
2023/02/23 13:50:25;;;;;;;1.83;1.20;;;19.20;49.10;;;;;;5051512;28;20204;-49
2023/02/23 13:52:57;;;;;;;1.77;1.17;;;19.20;49.00;;;;;;5051372;28;20218;-52
2023/02/23 13:55:50;;;;;;;2.92;1.70;;;19.20;49.00;;;;;;5052146;28;20290;-53
2023/02/23 13:58:25;;;;;;;1.30;1.20;;;19.20;49.00;;;;;;5051910;28;20564;-52
2023/02/23 14:01:15;;;;;;;1.88;1.40;;;19.20;49.10;;;;;;5051538;28;20348;-51
2023/02/23 14:03:54;;;;;;;3.38;1.33;;;19.20;49.00;;;;;;5051648;28;20211;-50
2023/02/23 14:06:28;;;;;;;2.50;1.40;;;19.20;49.10;;;;;;5051877;28;20620;-52
2023/02/23 14:09:01;;;;;;;1.70;1.17;;;19.20;49.20;;;;;;5051622;28;20227;-52
2023/02/23 14:11:41;;;;;;;1.63;1.10;;;19.10;49.00;;;;;;5051729;28;20227;-53
2023/02/23 14:14:16;;;;;;;1.83;1.20;;;19.10;49.00;;;;;;5046459;28;20638;-49
2023/02/23 14:17:07;;;;;;;1.58;1.40;;;19.10;49.00;;;;;;5049304;28;20616;-50
2023/02/23 14:19:42;;;;;;;2.78;1.40;;;19.10;49.00;;;;;;5051649;28;20261;-49
2023/02/23 14:22:20;;;;;;;1.98;1.20;;;19.10;49.00;;;;;;5051689;28;20694;-52
2023/02/23 14:25:28;;;;;;;2.75;1.13;;;19.10;49.00;;;;;;5051170;28;20191;-51
2023/02/23 14:28:01;;;;;;;2.83;1.27;;;19.10;49.00;;;;;;5051183;28;20256;-49
2023/02/23 14:30:48;;;;;;;1.63;1.25;;;19.10;49.00;;;;;;5051524;28;20199;-49
2023/02/23 14:33:37;;;;;;;2.28;1.40;;;19.10;49.10;;;;;;5051474;28;20221;-49
2023/02/23 14:36:44;;;;;;;1.65;1.10;;;19.00;49.00;;;;;;5051093;28;20359;-50
2023/02/23 14:39:25;;;;;;;1.30;1.20;;;19.00;49.00;;;;;;5050551;28;20199;-50
2023/02/23 14:41:57;;;;;;;1.55;1.13;;;19.00;49.00;;;;;;5051514;28;20568;-51
2023/02/23 14:44:30;;;;;;;1.75;1.20;;;19.00;49.00;;;;;;5051782;28;20203;-49
2023/02/23 14:47:08;;;;;;;1.60;1.35;;;19.00;49.00;;;;;;5051083;28;20195;-50